createdAt,value
2023-03-20T09:56:42.517Z,15.20
2023-03-20T09:59:10.989Z,16.70
2023-03-20T10:01:48.597Z,12.60
2023-03-20T10:04:15.936Z,12.70
2023-03-20T10:06:43.057Z,12.20
2023-03-20T10:09:36.649Z,11.80
2023-03-20T10:12:42.947Z,8.80
2023-03-20T10:15:52.003Z,9.90
2023-03-20T10:18:26.173Z,11.70
2023-03-20T10:21:13.658Z,12.00
2023-03-20T10:23:43.150Z,11.40
2023-03-20T10:26:11.683Z,9.90
2023-03-20T10:29:05.114Z,11.60
2023-03-20T10:31:52.164Z,9.70
2023-03-20T10:34:28.777Z,11.90
2023-03-20T10:37:16.776Z,10.10
2023-03-20T10:39:51.089Z,11.30
2023-03-20T10:42:29.937Z,11.80
2023-03-20T10:45:27.171Z,9.30
2023-03-20T10:47:54.301Z,15.10
2023-03-20T10:50:23.489Z,8.90
2023-03-20T10:52:51.076Z,7.70
2023-03-20T10:55:24.237Z,9.40
2023-03-20T10:57:54.880Z,8.30
2023-03-20T11:00:23.132Z,10.30
2023-03-20T11:02:50.932Z,8.40
2023-03-20T11:05:20.079Z,9.60
2023-03-20T11:10:19.152Z,8.90
2023-03-20T11:12:47.213Z,6.60
2023-03-20T11:15:21.887Z,9.40
2023-03-20T11:17:57.482Z,9.80
2023-03-20T11:20:35.983Z,17.40
2023-03-20T11:23:07.643Z,11.20
2023-03-20T11:25:38.176Z,4.80
2023-03-20T11:28:26.376Z,6.60
2023-03-20T11:31:04.884Z,6.30
2023-03-20T11:33:44.691Z,5.50
2023-03-20T11:36:27.778Z,5.70
2023-03-20T11:39:14.676Z,5.60
2023-03-20T11:41:50.367Z,4.40
2023-03-20T11:44:30.705Z,7.50
2023-03-20T11:47:05.070Z,6.40
2023-03-20T11:49:45.216Z,8.20
2023-03-20T11:52:13.246Z,7.90
2023-03-20T11:54:46.441Z,9.00
2023-03-20T11:57:34.726Z,9.50
2023-03-20T12:00:10.728Z,6.60
2023-03-20T12:02:41.549Z,9.60
2023-03-20T12:05:35.986Z,6.70
2023-03-20T12:08:13.148Z,6.60
2023-03-20T12:10:42.340Z,5.70
2023-03-20T12:13:42.089Z,8.50
2023-03-20T12:16:13.711Z,8.70
2023-03-20T12:18:59.851Z,8.60
2023-03-20T12:21:32.921Z,11.60
2023-03-20T12:24:09.251Z,11.70
2023-03-20T12:26:41.596Z,7.40
2023-03-20T12:29:32.035Z,9.50
2023-03-20T12:32:17.446Z,9.10
2023-03-20T12:34:47.231Z,7.80
2023-03-20T12:37:14.455Z,9.00
2023-03-20T12:39:54.193Z,9.20
2023-03-20T12:42:26.996Z,8.70
2023-03-20T12:47:50.348Z,10.80
2023-03-20T12:50:36.486Z,8.80
2023-03-20T12:53:03.662Z,8.50
2023-03-20T12:55:30.637Z,10.40
2023-03-20T12:58:43.494Z,9.70
2023-03-20T13:01:20.729Z,12.90
2023-03-20T13:03:54.354Z,9.00
2023-03-20T13:06:39.502Z,9.40
2023-03-20T13:09:35.094Z,7.00
2023-03-20T13:12:15.041Z,10.10
2023-03-20T13:15:00.744Z,9.40
2023-03-20T13:17:53.724Z,9.80
2023-03-20T13:20:28.631Z,8.90
2023-03-20T13:23:05.578Z,6.80
2023-03-20T13:25:46.873Z,12.30
2023-03-20T13:28:13.582Z,10.20
2023-03-20T13:30:44.470Z,8.00
2023-03-20T13:33:35.520Z,7.50
2023-03-20T13:36:12.007Z,7.20
2023-03-20T13:38:44.943Z,11.90
2023-03-20T13:41:11.673Z,11.90
2023-03-20T13:43:41.487Z,8.20
2023-03-20T13:46:18.159Z,10.10
2023-03-20T13:48:45.354Z,7.80
2023-03-20T13:51:30.350Z,7.00
2023-03-20T13:54:16.344Z,8.60
2023-03-20T13:57:06.954Z,14.80
2023-03-20T13:59:36.405Z,11.20
2023-03-20T14:02:17.188Z,13.00
2023-03-20T14:04:44.659Z,10.00
2023-03-20T14:07:33.261Z,10.30
2023-03-20T14:10:21.244Z,10.40
2023-03-20T14:12:55.657Z,8.60
2023-03-20T14:15:26.210Z,11.10
2023-03-20T14:17:53.349Z,9.10
2023-03-20T14:23:35.247Z,8.40
2023-03-20T14:26:29.270Z,10.60
2023-03-20T14:31:32.168Z,10.60
2023-03-20T14:34:11.170Z,10.30
2023-03-20T14:36:50.435Z,12.10
2023-03-20T14:39:23.637Z,8.90
2023-03-20T14:41:57.001Z,7.50
2023-03-20T14:44:28.721Z,9.50
2023-03-20T14:47:04.052Z,9.70
2023-03-20T14:50:07.780Z,15.20
2023-03-20T14:52:44.012Z,12.60
2023-03-20T14:55:34.781Z,12.40
2023-03-20T14:58:03.274Z,12.00
2023-03-20T15:00:34.321Z,14.70
2023-03-20T15:03:09.147Z,12.10
2023-03-20T15:05:37.440Z,11.40
2023-03-20T15:08:07.948Z,15.10
2023-03-20T15:10:37.832Z,14.80
2023-03-20T15:13:06.384Z,12.90
2023-03-20T15:15:34.087Z,13.50
2023-03-20T15:18:07.407Z,11.90
2023-03-20T15:20:35.462Z,22.40
2023-03-20T15:23:02.881Z,13.80
2023-03-20T15:25:39.539Z,17.40
2023-03-20T15:28:16.730Z,15.30
2023-03-20T15:30:47.862Z,11.10
2023-03-20T15:33:25.498Z,10.20
2023-03-20T15:35:53.403Z,11.70
2023-03-20T15:38:20.376Z,12.20
2023-03-20T15:40:51.553Z,12.00
2023-03-20T15:43:23.734Z,17.50
2023-03-20T15:45:57.587Z,11.40
2023-03-20T15:48:33.681Z,12.40
2023-03-20T15:51:04.409Z,15.70
2023-03-20T15:53:36.766Z,16.70
2023-03-20T15:56:17.337Z,12.90
2023-03-20T15:58:45.283Z,13.90
2023-03-20T16:01:17.120Z,30.80
2023-03-20T16:03:43.921Z,18.30
2023-03-20T16:06:11.776Z,15.40
2023-03-20T16:08:38.975Z,17.40
2023-03-20T16:11:12.654Z,17.50
2023-03-20T16:13:41.965Z,18.20
2023-03-20T16:16:13.460Z,15.90
2023-03-20T16:18:47.921Z,18.20
2023-03-20T16:21:21.393Z,15.70
2023-03-20T16:23:51.244Z,19.30
2023-03-20T16:26:19.797Z,21.10
2023-03-20T16:28:58.718Z,22.30
2023-03-20T16:31:34.155Z,32.00
2023-03-20T16:34:06.618Z,25.70
2023-03-20T16:36:36.022Z,26.80
2023-03-20T16:39:07.805Z,28.00
2023-03-20T16:41:39.929Z,29.80
2023-03-20T16:44:08.376Z,30.80
2023-03-20T16:46:35.588Z,35.70
2023-03-20T16:49:34.117Z,41.00
2023-03-20T16:52:03.063Z,42.90
2023-03-20T16:54:31.334Z,40.90
2023-03-20T16:56:58.282Z,38.30
2023-03-20T16:59:25.432Z,37.40
2023-03-20T17:01:54.529Z,39.00
2023-03-20T17:04:23.754Z,32.10
2023-03-20T17:06:57.835Z,33.30
2023-03-20T17:12:05.743Z,30.40
2023-03-20T17:14:34.077Z,29.30
2023-03-20T17:17:01.313Z,29.30
2023-03-20T17:19:28.317Z,30.10
2023-03-20T17:21:57.161Z,37.30
2023-03-20T17:24:24.890Z,38.30
2023-03-20T17:26:53.592Z,38.60
2023-03-20T17:29:21.155Z,41.50
2023-03-20T17:31:48.209Z,37.10
2023-03-20T17:34:15.354Z,35.30
2023-03-20T17:36:43.230Z,35.90
2023-03-20T17:39:20.332Z,37.80
2023-03-20T17:41:47.775Z,35.40
2023-03-20T17:44:15.083Z,48.70
2023-03-20T17:47:02.158Z,37.90
2023-03-20T17:49:33.137Z,37.30
2023-03-20T17:52:00.316Z,36.00
2023-03-20T17:54:32.580Z,37.60
2023-03-20T17:56:59.911Z,36.50
2023-03-20T17:59:30.519Z,32.50
2023-03-20T18:01:57.764Z,35.00
2023-03-20T18:04:25.104Z,33.70
2023-03-20T18:06:57.341Z,37.30
2023-03-20T18:09:29.752Z,37.70
2023-03-20T18:11:56.963Z,35.80
2023-03-20T18:14:25.749Z,36.90
2023-03-20T18:16:53.303Z,29.80
2023-03-20T18:19:27.686Z,30.90
2023-03-20T18:21:56.137Z,30.90
2023-03-20T18:24:23.726Z,44.80
2023-03-20T18:26:51.184Z,39.00
2023-03-20T18:29:18.479Z,44.30
2023-03-20T18:31:46.985Z,36.50
2023-03-20T18:34:15.836Z,33.90
2023-03-20T18:36:45.151Z,39.30
2023-03-20T18:39:22.861Z,45.90
2023-03-20T18:41:50.511Z,40.60
2023-03-20T18:44:17.802Z,29.00
2023-03-20T18:46:44.838Z,32.70
2023-03-20T18:49:18.080Z,30.20
2023-03-20T18:51:46.213Z,25.60
2023-03-20T18:54:13.256Z,24.60
2023-03-20T18:56:44.370Z,33.80
2023-03-20T18:59:12.175Z,26.60
2023-03-20T19:01:39.447Z,25.60
2023-03-20T19:04:22.613Z,20.80
2023-03-20T19:06:49.634Z,21.00
2023-03-20T19:09:17.858Z,20.60
2023-03-20T19:11:47.402Z,23.40
2023-03-20T19:14:14.302Z,23.10
2023-03-20T19:16:42.222Z,18.70
2023-03-20T19:19:11.164Z,23.20
2023-03-20T19:21:38.635Z,26.90
2023-03-20T19:24:08.226Z,28.90
2023-03-20T19:26:36.909Z,28.40
2023-03-20T19:29:09.726Z,29.60
2023-03-20T19:31:37.994Z,32.20
2023-03-20T19:34:07.926Z,32.00
2023-03-20T19:36:36.494Z,32.60
2023-03-20T19:39:06.350Z,35.30
2023-03-20T19:41:34.753Z,36.40
2023-03-20T19:44:02.678Z,35.20
2023-03-20T19:46:41.431Z,33.30
2023-03-20T19:49:20.245Z,37.30
2023-03-20T19:51:48.494Z,32.90
2023-03-20T19:54:15.850Z,39.30
2023-03-20T19:56:46.890Z,44.10
2023-03-20T19:59:17.020Z,39.90
2023-03-20T20:01:45.391Z,37.30
2023-03-20T20:04:13.051Z,43.00
2023-03-20T20:06:41.878Z,38.00
2023-03-20T20:09:09.509Z,38.90
2023-03-20T20:11:37.674Z,57.50
2023-03-20T20:14:08.711Z,28.40
2023-03-20T20:16:39.915Z,32.50
2023-03-20T20:19:07.400Z,35.90
2023-03-20T20:24:23.391Z,29.00
2023-03-20T20:27:14.673Z,30.80
2023-03-20T20:29:46.337Z,26.10
2023-03-20T20:32:13.098Z,27.30
2023-03-20T20:38:14.099Z,31.00
2023-03-20T20:40:17.754Z,29.70
2023-03-20T20:42:47.448Z,30.70
2023-03-20T20:45:15.366Z,27.20
2023-03-20T20:47:44.158Z,27.10
2023-03-20T20:50:13.594Z,23.90
2023-03-20T20:52:41.766Z,22.80
2023-03-20T20:55:22.208Z,22.40
2023-03-20T20:57:53.226Z,27.00
2023-03-20T21:00:22.717Z,25.10
2023-03-20T21:02:49.589Z,22.80
2023-03-20T21:05:17.185Z,23.30
2023-03-20T21:07:46.417Z,23.00
2023-03-20T21:10:16.192Z,23.10
2023-03-20T21:12:58.128Z,23.80
2023-03-20T21:15:26.997Z,23.90
2023-03-20T21:18:01.019Z,21.90
2023-03-20T21:20:30.704Z,23.60
2023-03-20T21:22:58.245Z,22.40
2023-03-20T21:25:39.150Z,23.40
2023-03-20T21:28:07.963Z,24.70
2023-03-20T21:30:44.304Z,23.50
2023-03-20T21:33:20.619Z,24.20
2023-03-20T21:35:49.593Z,29.20
2023-03-20T21:41:10.549Z,23.80
2023-03-20T21:43:37.351Z,27.80
2023-03-20T21:46:45.221Z,26.20
2023-03-20T21:58:03.506Z,24.70
2023-03-20T22:00:52.753Z,28.20
2023-03-20T22:02:55.410Z,26.30
2023-03-20T22:11:56.702Z,24.40
2023-03-20T22:25:49.189Z,27.60
2023-03-20T22:37:10.998Z,22.80
2023-03-20T22:44:59.117Z,21.20
2023-03-20T22:47:27.440Z,25.20
2023-03-20T22:49:55.089Z,22.40
2023-03-20T22:52:31.708Z,25.10
2023-03-20T23:02:37.467Z,21.70
2023-03-20T23:05:06.986Z,24.90
2023-03-20T23:07:37.608Z,21.60
2023-03-20T23:10:09.646Z,24.40
2023-03-20T23:12:38.561Z,27.10
2023-03-20T23:15:08.415Z,24.20
2023-03-20T23:17:37.035Z,28.10
2023-03-20T23:20:13.335Z,31.00
2023-03-20T23:22:44.375Z,27.50
2023-03-20T23:25:20.993Z,28.10
2023-03-20T23:27:59.102Z,30.60
2023-03-20T23:30:30.896Z,41.90
2023-03-20T23:33:07.074Z,40.30
2023-03-20T23:35:35.512Z,44.80
2023-03-20T23:38:05.557Z,46.00
2023-03-20T23:40:39.665Z,50.80
2023-03-20T23:43:09.128Z,49.50
2023-03-20T23:45:38.764Z,56.70
2023-03-20T23:48:07.512Z,57.00
2023-03-20T23:50:51.494Z,62.20
2023-03-20T23:53:21.549Z,67.90
2023-03-20T23:55:52.209Z,73.40
2023-03-20T23:58:26.393Z,74.40
